Time;durP1;ratioP1;P1;durP2;ratioP2;P2;SDS_P1;SDS_P2;PMS_P1;PMS_P2;Temp;Humidity;BMP_temperature;BMP_pressure;BME280_temperature;BME280_humidity;BME280_pressure;Samples;Min_cycle;Max_cycle;Signal;HPM_P1;HPM_P2
2021/01/01 00:00:58;;;;;;;98.40;52.88;;;2.00;99.90;;;;;;5033130;28;20083;-52
2021/01/01 00:03:24;;;;;;;97.32;55.20;;;2.00;99.90;;;;;;5030444;28;20108;-49
2021/01/01 00:05:49;;;;;;;101.20;55.58;;;2.00;99.90;;;;;;5031558;28;20111;-48
2021/01/01 00:08:17;;;;;;;110.18;58.90;;;2.00;99.90;;;;;;5032539;28;20379;-53
2021/01/01 00:10:43;;;;;;;112.20;62.83;;;2.10;99.90;;;;;;5035153;28;20025;-54
2021/01/01 00:13:08;;;;;;;108.38;60.35;;;2.00;99.90;;;;;;5037786;28;20033;-50
2021/01/01 00:15:34;;;;;;;108.18;59.95;;;2.00;99.90;;;;;;5033738;28;20067;-48
2021/01/01 00:17:59;;;;;;;99.93;53.53;;;2.00;99.90;;;;;;5035403;28;21214;-49
2021/01/01 00:20:25;;;;;;;103.55;55.42;;;2.00;99.90;;;;;;5041485;28;20025;-52
2021/01/01 00:22:50;;;;;;;93.70;52.50;;;2.00;99.90;;;;;;5034170;28;20033;-52
2021/01/01 00:25:16;;;;;;;85.20;51.25;;;2.10;99.90;;;;;;5035343;28;20029;-53
2021/01/01 00:27:42;;;;;;;80.93;42.33;;;2.00;99.90;;;;;;5040375;28;20175;-51
2021/01/01 00:30:10;;;;;;;75.40;41.05;;;2.00;99.90;;;;;;5028947;28;20025;-53
2021/01/01 00:32:36;;;;;;;76.47;42.92;;;2.00;99.90;;;;;;5026872;28;20026;-51
2021/01/01 00:35:02;;;;;;;70.20;40.22;;;2.00;99.90;;;;;;5031379;28;20031;-53
2021/01/01 00:37:27;;;;;;;69.68;40.08;;;2.10;99.90;;;;;;5045094;28;20037;-49
2021/01/01 00:39:53;;;;;;;70.18;39.25;;;2.10;99.90;;;;;;5046360;28;20040;-49
2021/01/01 00:42:18;;;;;;;67.10;38.47;;;2.10;99.90;;;;;;5046757;28;20025;-50
2021/01/01 00:44:45;;;;;;;63.85;36.53;;;2.20;99.90;;;;;;5045033;28;20105;-52
2021/01/01 00:47:11;;;;;;;64.95;37.38;;;2.20;99.90;;;;;;5046188;28;20474;-53
2021/01/01 00:49:38;;;;;;;74.53;40.50;;;2.20;99.90;;;;;;5028569;28;20030;-51
2021/01/01 00:52:04;;;;;;;59.17;34.90;;;2.20;99.90;;;;;;5031105;28;20036;-49
2021/01/01 00:54:30;;;;;;;72.30;39.67;;;2.20;99.90;;;;;;5044530;28;20917;-50
2021/01/01 00:56:56;;;;;;;74.68;38.72;;;2.20;99.90;;;;;;5044808;28;20374;-52
2021/01/01 00:59:21;;;;;;;69.97;39.67;;;2.10;99.90;;;;;;5045613;28;20112;-53
2021/01/01 01:01:47;;;;;;;64.22;37.75;;;2.10;99.90;;;;;;5031561;28;20459;-48
2021/01/01 01:04:12;;;;;;;72.45;41.08;;;2.20;99.90;;;;;;5039792;28;20075;-48
2021/01/01 01:06:38;;;;;;;73.32;40.10;;;2.20;99.90;;;;;;5032371;28;20049;-51
2021/01/01 01:09:04;;;;;;;75.45;42.92;;;2.10;99.90;;;;;;5030587;28;20037;-53
2021/01/01 01:11:31;;;;;;;74.13;40.65;;;2.10;99.90;;;;;;5029458;28;20048;-51
2021/01/01 01:13:58;;;;;;;68.65;36.38;;;2.10;99.90;;;;;;5032869;28;20449;-50
2021/01/01 01:16:25;;;;;;;67.97;37.35;;;2.10;99.90;;;;;;5048436;28;20099;-52
2021/01/01 01:18:52;;;;;;;66.82;36.40;;;2.10;99.90;;;;;;5049142;28;20123;-50
2021/01/01 01:21:19;;;;;;;63.00;34.17;;;2.10;99.90;;;;;;5049526;28;20033;-52
2021/01/01 01:23:44;;;;;;;65.05;35.05;;;2.20;99.90;;;;;;5042953;28;20060;-49
2021/01/01 01:26:10;;;;;;;54.00;29.02;;;2.20;99.90;;;;;;5046919;28;20048;-53
2021/01/01 01:28:35;;;;;;;55.85;30.75;;;2.20;99.90;;;;;;5042923;28;20028;-52
2021/01/01 01:31:01;;;;;;;52.50;28.25;;;2.20;99.90;;;;;;5049020;28;20027;-49
2021/01/01 01:33:26;;;;;;;49.85;28.20;;;2.20;99.90;;;;;;5049098;28;20078;-53
2021/01/01 01:35:52;;;;;;;46.65;26.77;;;2.20;99.90;;;;;;5030306;28;20044;-49
2021/01/01 01:38:18;;;;;;;55.72;29.42;;;2.30;99.90;;;;;;5029290;28;20483;-53
2021/01/01 01:40:43;;;;;;;47.58;26.98;;;2.20;99.90;;;;;;5029550;28;20033;-48
2021/01/01 01:43:09;;;;;;;42.53;24.40;;;2.20;99.90;;;;;;5040422;28;20036;-50
2021/01/01 01:45:34;;;;;;;47.70;27.45;;;2.20;99.90;;;;;;5048675;28;20108;-53
2021/01/01 01:48:01;;;;;;;45.38;26.77;;;2.20;99.90;;;;;;5048282;28;20040;-51
2021/01/01 01:50:27;;;;;;;47.15;26.50;;;2.20;99.90;;;;;;5049013;28;20402;-52
2021/01/01 01:52:53;;;;;;;48.60;25.85;;;2.20;99.90;;;;;;5049008;28;20029;-48
2021/01/01 01:55:19;;;;;;;45.85;25.23;;;2.20;99.90;;;;;;5039230;28;20040;-51
2021/01/01 01:57:45;;;;;;;43.15;24.73;;;2.10;99.90;;;;;;5047704;28;20029;-53
2021/01/01 02:00:34;;;;;;;41.22;23.88;;;2.10;99.90;;;;;;5041503;28;20029;-52
2021/01/01 02:02:57;;;;;;;38.70;23.23;;;2.20;99.90;;;;;;5027450;28;20029;-53
2021/01/01 02:05:22;;;;;;;49.25;25.95;;;2.20;99.90;;;;;;5029109;28;20037;-53
2021/01/01 02:07:48;;;;;;;47.05;25.23;;;2.10;99.90;;;;;;5026278;28;20101;-53
2021/01/01 02:10:14;;;;;;;50.08;27.33;;;2.20;99.90;;;;;;5028235;28;20026;-53
2021/01/01 02:12:41;;;;;;;49.67;27.83;;;2.20;99.90;;;;;;5046504;28;20052;-53
2021/01/01 02:15:07;;;;;;;50.97;28.42;;;2.10;99.90;;;;;;5048192;28;20036;-50
2021/01/01 02:17:33;;;;;;;49.38;25.90;;;2.10;99.90;;;;;;5047331;28;20104;-52
2021/01/01 02:20:10;;;;;;;50.50;27.20;;;2.20;99.90;;;;;;5032960;28;20112;-53
2021/01/01 02:22:39;;;;;;;59.10;31.45;;;2.20;99.90;;;;;;5037537;28;20564;-53
2021/01/01 02:25:07;;;;;;;54.75;29.58;;;2.10;99.90;;;;;;5031459;28;20112;-50
2021/01/01 02:27:32;;;;;;;60.20;29.83;;;2.10;99.90;;;;;;5028665;28;20057;-53
2021/01/01 02:29:58;;;;;;;53.92;28.17;;;2.10;99.90;;;;;;5040380;28;20095;-52
2021/01/01 02:32:24;;;;;;;55.55;26.92;;;2.10;99.90;;;;;;5026123;28;20037;-51
2021/01/01 02:34:50;;;;;;;50.00;28.52;;;2.10;99.90;;;;;;5032164;28;20116;-52
2021/01/01 02:37:15;;;;;;;55.42;29.58;;;2.10;99.90;;;;;;5030329;28;20009;-49
2021/01/01 02:39:41;;;;;;;52.03;28.80;;;2.10;99.90;;;;;;5043707;28;20025;-49
2021/01/01 02:42:07;;;;;;;49.70;27.75;;;2.10;99.90;;;;;;5034777;28;20536;-52
2021/01/01 02:44:33;;;;;;;49.55;27.08;;;2.10;99.90;;;;;;5047495;28;20052;-49
2021/01/01 02:47:02;;;;;;;49.60;26.73;;;2.10;99.90;;;;;;5048759;28;20063;-48
2021/01/01 02:49:28;;;;;;;48.93;27.37;;;2.10;99.90;;;;;;5048563;28;20103;-48
2021/01/01 02:51:54;;;;;;;54.20;27.35;;;2.10;99.90;;;;;;5046535;28;20685;-51
2021/01/01 02:54:19;;;;;;;51.92;27.80;;;2.10;99.90;;;;;;5047242;28;20009;-48
2021/01/01 02:56:45;;;;;;;50.38;27.90;;;2.20;99.90;;;;;;5035437;28;20111;-48
2021/01/01 02:59:10;;;;;;;44.03;23.67;;;2.20;99.90;;;;;;5028333;28;20021;-48
2021/01/01 03:01:36;;;;;;;47.70;24.88;;;2.20;99.90;;;;;;5027700;28;20071;-51
2021/01/01 03:04:02;;;;;;;45.78;25.23;;;2.20;99.90;;;;;;5044852;28;20454;-52
2021/01/01 03:06:27;;;;;;;46.50;24.48;;;2.30;99.90;;;;;;5035564;28;20074;-49
2021/01/01 03:08:53;;;;;;;45.55;23.30;;;2.30;99.90;;;;;;5035105;28;20025;-53
2021/01/01 03:11:20;;;;;;;40.72;23.88;;;2.40;99.90;;;;;;5029051;28;20030;-52
2021/01/01 03:13:45;;;;;;;39.90;22.83;;;2.40;99.90;;;;;;5030696;28;20083;-48
2021/01/01 03:16:11;;;;;;;40.88;23.13;;;2.40;99.90;;;;;;5035892;28;20017;-50
2021/01/01 03:18:36;;;;;;;42.60;22.42;;;2.40;99.90;;;;;;5036588;28;20105;-51
2021/01/01 03:21:02;;;;;;;41.95;22.55;;;2.40;99.90;;;;;;5037005;28;20029;-51
2021/01/01 03:23:28;;;;;;;47.10;23.45;;;2.40;99.90;;;;;;5036513;28;20137;-52
2021/01/01 03:25:53;;;;;;;44.83;25.05;;;2.40;99.90;;;;;;5035802;28;20541;-50
2021/01/01 03:28:19;;;;;;;56.97;27.00;;;2.40;99.90;;;;;;5035736;28;20490;-53
2021/01/01 03:30:46;;;;;;;45.28;25.33;;;2.40;99.90;;;;;;5034989;28;20041;-50
2021/01/01 03:33:11;;;;;;;46.72;25.15;;;2.40;99.90;;;;;;5030562;28;20525;-55
2021/01/01 03:35:37;;;;;;;47.28;24.90;;;2.30;99.90;;;;;;5035039;28;20029;-49
2021/01/01 03:38:02;;;;;;;46.42;25.05;;;2.40;99.90;;;;;;5037679;28;20022;-49
2021/01/01 03:40:28;;;;;;;48.00;25.20;;;2.30;99.90;;;;;;5036597;28;20180;-52
2021/01/01 03:42:54;;;;;;;47.58;25.52;;;2.30;99.90;;;;;;5036219;28;20025;-52
2021/01/01 03:45:20;;;;;;;45.53;24.13;;;2.40;99.90;;;;;;5035102;28;20029;-53
2021/01/01 03:47:46;;;;;;;39.80;22.50;;;2.30;99.90;;;;;;5035147;28;20024;-50
2021/01/01 03:50:11;;;;;;;45.25;23.45;;;2.40;99.90;;;;;;5036649;28;20017;-52
2021/01/01 03:52:37;;;;;;;47.03;25.58;;;2.40;99.90;;;;;;5034971;28;20026;-50
2021/01/01 03:55:03;;;;;;;43.35;23.52;;;2.40;99.90;;;;;;5035611;28;20398;-51
2021/01/01 03:57:29;;;;;;;38.90;21.73;;;2.40;99.90;;;;;;5036422;28;20388;-51
2021/01/01 03:59:55;;;;;;;42.70;21.25;;;2.40;99.90;;;;;;5035628;28;20039;-49
2021/01/01 04:02:20;;;;;;;47.42;25.40;;;2.40;99.90;;;;;;5036205;28;20029;-49
2021/01/01 04:04:46;;;;;;;45.92;23.58;;;2.40;99.90;;;;;;5033466;28;20021;-53
2021/01/01 04:07:12;;;;;;;47.80;24.88;;;2.40;99.90;;;;;;5035704;28;20021;-52
2021/01/01 04:09:38;;;;;;;40.10;22.55;;;2.40;99.90;;;;;;5035060;28;20017;-52
2021/01/01 04:12:04;;;;;;;43.60;23.73;;;2.40;99.90;;;;;;5034116;28;20118;-51
2021/01/01 04:14:33;;;;;;;38.85;22.77;;;2.40;99.90;;;;;;5016911;28;20024;-52
2021/01/01 04:16:59;;;;;;;43.05;21.60;;;2.40;99.90;;;;;;5032938;28;20108;-52
2021/01/01 04:19:29;;;;;;;45.67;24.45;;;2.40;99.90;;;;;;5035348;28;20311;-51
2021/01/01 04:21:55;;;;;;;41.67;23.80;;;2.40;99.90;;;;;;5036878;28;20017;-50
2021/01/01 04:24:20;;;;;;;42.67;23.80;;;2.40;99.90;;;;;;5035698;28;20025;-53
2021/01/01 04:26:46;;;;;;;47.05;22.85;;;2.40;99.90;;;;;;5031339;28;20100;-51
2021/01/01 04:29:12;;;;;;;42.45;24.05;;;2.40;99.90;;;;;;5034236;28;20006;-52
2021/01/01 04:31:38;;;;;;;41.88;23.73;;;2.40;99.90;;;;;;5035894;28;20202;-50
2021/01/01 04:34:05;;;;;;;38.13;22.55;;;2.40;99.90;;;;;;5037041;28;20407;-50
2021/01/01 04:36:31;;;;;;;40.00;22.15;;;2.40;99.90;;;;;;5032024;28;20505;-50
2021/01/01 04:38:56;;;;;;;35.38;20.45;;;2.50;99.90;;;;;;5033065;28;20025;-49
2021/01/01 04:41:22;;;;;;;37.42;22.85;;;2.50;99.90;;;;;;5029474;28;20399;-52
2021/01/01 04:43:49;;;;;;;39.38;22.38;;;2.50;99.90;;;;;;5029466;28;20056;-50
2021/01/01 04:46:15;;;;;;;39.97;21.35;;;2.50;99.90;;;;;;5035543;28;20032;-52
2021/01/01 04:48:45;;;;;;;36.83;21.15;;;2.50;99.90;;;;;;5048452;28;20017;-49
2021/01/01 04:51:12;;;;;;;41.83;22.63;;;2.50;99.90;;;;;;5050586;28;20036;-50
2021/01/01 04:53:38;;;;;;;40.75;22.13;;;2.50;99.90;;;;;;5044632;28;20676;-50
2021/01/01 04:56:06;;;;;;;35.47;21.33;;;2.50;99.90;;;;;;5028203;28;20059;-49
2021/01/01 04:58:32;;;;;;;37.78;20.17;;;2.50;99.90;;;;;;5029069;28;20034;-52
2021/01/01 05:00:58;;;;;;;39.58;22.20;;;2.50;99.90;;;;;;5030938;28;20108;-50
2021/01/01 05:03:25;;;;;;;41.47;22.33;;;2.50;99.90;;;;;;5031089;28;20112;-51
2021/01/01 05:05:54;;;;;;;39.22;21.48;;;2.50;99.90;;;;;;5043715;28;20111;-52
2021/01/01 05:08:21;;;;;;;40.55;21.30;;;2.50;99.90;;;;;;5049221;28;20040;-49
2021/01/01 05:10:47;;;;;;;41.58;23.23;;;2.50;99.90;;;;;;5045019;28;20482;-51
2021/01/01 05:13:15;;;;;;;38.63;22.00;;;2.50;99.90;;;;;;5042317;28;20025;-51
2021/01/01 05:15:42;;;;;;;39.30;22.65;;;2.50;99.90;;;;;;5028647;28;20033;-50
2021/01/01 05:18:22;;;;;;;43.47;23.20;;;2.50;99.90;;;;;;5050237;28;20391;-53
2021/01/01 05:20:49;;;;;;;42.95;22.67;;;2.40;99.90;;;;;;5044502;28;20025;-48
2021/01/01 05:23:23;;;;;;;44.72;23.60;;;2.50;99.90;;;;;;5045195;28;20359;-52
2021/01/01 05:26:13;;;;;;;36.65;21.27;;;2.50;99.90;;;;;;5039050;28;20017;-52
2021/01/01 05:28:56;;;;;;;34.20;20.55;;;2.40;99.90;;;;;;5044355;28;20026;-50
2021/01/01 05:31:34;;;;;;;43.30;21.38;;;2.50;99.90;;;;;;5029072;28;20029;-52
2021/01/01 05:34:40;;;;;;;36.58;21.23;;;2.50;99.90;;;;;;5028718;28;20032;-50
2021/01/01 05:37:05;;;;;;;38.20;21.02;;;2.50;99.90;;;;;;5027316;28;20465;-50
2021/01/01 05:39:31;;;;;;;39.55;22.80;;;2.50;99.90;;;;;;5029156;28;20029;-49
2021/01/01 05:41:57;;;;;;;40.38;20.45;;;2.50;99.90;;;;;;5037186;28;20025;-52
2021/01/01 05:44:31;;;;;;;37.33;20.17;;;2.40;99.90;;;;;;5047574;28;20023;-50
2021/01/01 05:47:01;;;;;;;37.38;20.92;;;2.40;99.90;;;;;;5047488;28;20021;-52
2021/01/01 05:49:41;;;;;;;40.22;22.33;;;2.40;99.90;;;;;;5048441;28;20119;-50
2021/01/01 05:52:16;;;;;;;36.13;20.33;;;2.40;99.90;;;;;;5049402;28;20079;-51
2021/01/01 05:54:45;;;;;;;34.08;18.83;;;2.40;99.90;;;;;;5048132;28;20048;-50
2021/01/01 05:57:14;;;;;;;38.08;21.63;;;2.40;99.90;;;;;;5048942;28;20421;-50
2021/01/01 05:59:41;;;;;;;34.65;19.58;;;2.40;99.90;;;;;;5043770;28;20033;-53
2021/01/01 06:02:09;;;;;;;34.85;20.90;;;2.40;99.90;;;;;;5033130;28;20193;-49
2021/01/01 06:04:35;;;;;;;36.05;19.88;;;2.30;99.90;;;;;;5033458;28;20032;-48
2021/01/01 06:07:03;;;;;;;35.83;20.30;;;2.30;99.90;;;;;;5048745;28;20025;-50
2021/01/01 06:09:30;;;;;;;38.83;20.80;;;2.30;99.90;;;;;;5048628;28;20121;-51
2021/01/01 06:12:03;;;;;;;38.00;20.48;;;2.30;99.90;;;;;;5039460;28;20025;-52
2021/01/01 06:14:41;;;;;;;36.35;20.55;;;2.30;99.90;;;;;;5028483;28;20018;-52
2021/01/01 06:17:10;;;;;;;36.88;19.73;;;2.30;99.90;;;;;;5028149;28;20037;-52
2021/01/01 06:19:59;;;;;;;32.75;19.77;;;2.30;99.90;;;;;;5033946;28;20044;-50
2021/01/01 06:22:27;;;;;;;38.92;21.02;;;2.30;99.90;;;;;;5046504;28;20080;-53
2021/01/01 06:25:00;;;;;;;41.55;22.45;;;2.20;99.90;;;;;;5039758;28;20025;-49
2021/01/01 06:27:30;;;;;;;39.00;21.15;;;2.20;99.90;;;;;;5030683;28;20159;-53
2021/01/01 06:30:09;;;;;;;;;;;2.20;99.90;;;;;;5028735;28;20528;-49
2021/01/01 06:32:35;;;;;;;38.55;21.13;;;2.20;99.90;;;;;;5028465;28;19904;-48
2021/01/01 06:35:13;;;;;;;39.60;22.25;;;2.20;99.90;;;;;;5035186;28;20175;-50
2021/01/01 06:37:47;;;;;;;35.63;20.95;;;2.10;99.90;;;;;;5043878;28;20025;-48
2021/01/01 06:40:22;;;;;;;38.45;22.30;;;2.10;99.90;;;;;;5035033;28;20093;-51
2021/01/01 06:43:07;;;;;;;42.83;22.23;;;2.10;99.90;;;;;;5040768;28;20396;-50
2021/01/01 06:45:41;;;;;;;42.80;22.17;;;2.20;99.90;;;;;;5027810;28;20453;-51
2021/01/01 06:48:07;;;;;;;34.53;20.30;;;2.20;99.90;;;;;;5028660;28;20104;-49
2021/01/01 06:50:37;;;;;;;39.40;20.88;;;2.20;99.90;;;;;;5037958;28;20056;-53
2021/01/01 06:53:03;;;;;;;36.55;20.23;;;2.20;99.90;;;;;;5040708;28;20026;-54
2021/01/01 06:55:31;;;;;;;34.78;20.48;;;2.10;99.90;;;;;;5046711;28;20017;-51
2021/01/01 06:57:56;;;;;;;42.53;22.80;;;2.10;99.90;;;;;;5044092;28;20029;-52
2021/01/01 07:00:50;;;;;;;37.10;19.95;;;2.10;99.90;;;;;;5028320;28;20076;-52
2021/01/01 07:03:24;;;;;;;38.75;20.15;;;2.10;99.90;;;;;;5026959;28;20044;-53
2021/01/01 07:05:49;;;;;;;43.13;22.42;;;2.10;99.90;;;;;;5032127;28;20021;-53
2021/01/01 07:08:43;;;;;;;40.92;21.15;;;2.00;99.90;;;;;;5042994;28;20032;-51
2021/01/01 07:11:17;;;;;;;40.20;20.85;;;2.00;99.90;;;;;;5046122;28;20436;-53
2021/01/01 07:13:43;;;;;;;39.95;21.25;;;2.00;99.90;;;;;;5035752;28;20391;-53
2021/01/01 07:16:09;;;;;;;36.60;19.73;;;2.00;99.90;;;;;;5043118;28;20028;-53
2021/01/01 07:18:34;;;;;;;42.42;21.15;;;2.00;99.90;;;;;;5035625;28;20033;-49
2021/01/01 07:21:04;;;;;;;39.95;21.30;;;2.00;99.90;;;;;;5029972;28;20026;-52
2021/01/01 07:23:31;;;;;;;38.85;21.92;;;2.00;99.90;;;;;;5034883;28;20032;-50
2021/01/01 07:25:58;;;;;;;36.47;20.02;;;2.00;99.90;;;;;;5027182;28;20419;-52
2021/01/01 07:28:25;;;;;;;39.47;21.13;;;1.90;99.90;;;;;;5027628;28;20454;-53
2021/01/01 07:30:51;;;;;;;40.72;22.00;;;1.90;99.90;;;;;;5033350;28;20030;-52
2021/01/01 07:33:24;;;;;;;39.10;20.83;;;1.90;99.90;;;;;;5027007;28;20081;-52
2021/01/01 07:36:00;;;;;;;49.17;24.27;;;1.90;99.90;;;;;;5026179;28;20033;-49
2021/01/01 07:38:27;;;;;;;45.03;21.67;;;1.90;99.90;;;;;;5026677;28;20064;-51
2021/01/01 07:40:53;;;;;;;47.13;23.10;;;1.90;99.90;;;;;;5035547;28;20514;-48
2021/01/01 07:43:19;;;;;;;40.90;21.33;;;1.90;99.90;;;;;;5037204;28;20036;-51
2021/01/01 07:45:45;;;;;;;43.63;21.80;;;1.90;99.90;;;;;;5038513;28;20029;-51
2021/01/01 07:48:11;;;;;;;47.83;22.13;;;2.00;99.90;;;;;;5047109;28;20275;-49
2021/01/01 07:50:39;;;;;;;47.70;24.02;;;2.00;99.90;;;;;;5045452;28;20037;-52
2021/01/01 07:53:05;;;;;;;45.03;23.00;;;2.10;99.90;;;;;;5045154;28;20029;-49
2021/01/01 07:55:32;;;;;;;43.35;22.75;;;2.10;99.90;;;;;;5036308;28;20398;-53
2021/01/01 07:58:12;;;;;;;46.83;22.08;;;2.10;99.90;;;;;;5026133;28;20037;-53
2021/01/01 08:00:46;;;;;;;43.20;22.17;;;2.20;99.90;;;;;;5047226;28;20202;-52
2021/01/01 08:03:15;;;;;;;45.17;23.08;;;2.20;99.90;;;;;;5047212;28;20267;-52
2021/01/01 08:05:44;;;;;;;45.22;21.60;;;2.20;99.90;;;;;;5039008;28;20025;-51
2021/01/01 08:08:19;;;;;;;45.97;22.83;;;2.20;99.90;;;;;;5030380;22;20510;-74
2021/01/01 08:10:46;;;;;;;47.25;22.92;;;2.30;99.90;;;;;;5008172;28;20048;-74
2021/01/01 08:13:15;;;;;;;43.10;21.60;;;2.30;99.90;;;;;;5009563;28;20038;-74
2021/01/01 08:15:42;;;;;;;40.72;21.77;;;2.40;99.90;;;;;;4997587;28;20034;-75
2021/01/01 08:18:16;;;;;;;36.20;20.50;;;2.40;99.90;;;;;;5009972;28;20017;-75
2021/01/01 08:21:03;;;;;;;39.47;21.73;;;2.50;99.90;;;;;;5009526;28;20057;-74
2021/01/01 08:23:42;;;;;;;39.47;21.20;;;2.50;99.90;;;;;;5009229;28;20018;-73
2021/01/01 08:26:08;;;;;;;43.35;22.05;;;2.50;99.90;;;;;;5007829;28;20022;-73
2021/01/01 08:28:35;;;;;;;37.20;20.85;;;2.50;99.90;;;;;;5007452;28;20075;-74
2021/01/01 08:31:02;;;;;;;35.50;19.58;;;2.50;99.90;;;;;;5002518;28;20026;-74
2021/01/01 08:33:39;;;;;;;35.05;20.17;;;2.50;99.90;;;;;;4989505;28;20066;-74
2021/01/01 08:36:10;;;;;;;40.13;20.77;;;2.50;99.90;;;;;;5006892;28;20022;-74
2021/01/01 08:38:38;;;;;;;36.95;21.67;;;2.50;99.90;;;;;;5007053;28;20049;-73
2021/01/01 08:41:04;;;;;;;37.00;20.58;;;2.60;99.90;;;;;;5009071;28;20041;-74
2021/01/01 08:43:30;;;;;;;36.30;20.25;;;2.60;99.90;;;;;;5009246;28;20375;-75
2021/01/01 08:45:56;;;;;;;33.97;20.58;;;2.50;99.90;;;;;;5007770;28;20045;-74
2021/01/01 08:48:27;;;;;;;36.08;21.15;;;2.60;99.90;;;;;;5007742;28;20180;-74
2021/01/01 08:50:52;;;;;;;;;;;2.50;99.90;;;;;;5009338;28;20156;-74
2021/01/01 08:53:19;;;;;;;35.10;19.27;;;2.60;99.90;;;;;;5008757;28;20008;-74
2021/01/01 08:55:56;;;;;;;38.83;20.67;;;2.60;99.90;;;;;;5006360;28;20089;-74
2021/01/01 08:58:22;;;;;;;36.80;20.42;;;2.60;99.90;;;;;;5008857;28;20026;-74
2021/01/01 09:00:47;;;;;;;39.47;21.27;;;2.60;99.90;;;;;;4999308;28;20033;-74
2021/01/01 09:03:16;;;;;;;37.67;21.27;;;2.60;99.90;;;;;;5004032;28;20033;-75
2021/01/01 09:05:41;;;;;;;38.17;20.23;;;2.60;99.90;;;;;;4998752;28;20050;-74
2021/01/01 09:08:08;;;;;;;37.05;20.30;;;2.70;99.90;;;;;;4998153;28;20078;-74
2021/01/01 09:10:33;;;;;;;35.00;19.27;;;2.70;99.90;;;;;;5012585;28;20076;-75
2021/01/01 09:13:23;;;;;;;32.78;19.40;;;2.80;99.90;;;;;;5003645;28;20104;-74
2021/01/01 09:16:04;;;;;;;40.95;21.60;;;2.80;99.90;;;;;;4977611;28;20046;-74
2021/01/01 09:18:31;;;;;;;33.33;19.08;;;2.80;99.90;;;;;;4980355;28;20053;-74
2021/01/01 09:21:35;;;;;;;33.03;19.65;;;2.90;99.90;;;;;;5000602;28;20026;-75
2021/01/01 09:24:01;;;;;;;36.95;19.70;;;2.90;99.90;;;;;;4984174;28;20161;-75
2021/01/01 09:26:28;;;;;;;32.85;19.38;;;2.90;99.90;;;;;;4963727;28;20117;-74
2021/01/01 09:29:02;;;;;;;34.47;19.73;;;2.90;99.90;;;;;;4993019;28;20054;-75
2021/01/01 09:31:29;;;;;;;31.13;18.17;;;2.90;99.90;;;;;;4999647;28;20022;-75
2021/01/01 09:34:02;;;;;;;34.55;19.23;;;3.00;99.90;;;;;;5008363;28;20030;-75
2021/01/01 09:36:31;;;;;;;33.67;19.95;;;3.00;99.90;;;;;;5005211;28;20033;-75
2021/01/01 09:38:57;;;;;;;33.58;19.20;;;3.00;99.90;;;;;;5006408;28;20069;-75
2021/01/01 09:41:22;;;;;;;34.67;19.88;;;3.10;99.90;;;;;;5012071;28;20755;-75
2021/01/01 09:43:48;;;;;;;32.75;19.00;;;3.10;99.90;;;;;;5012881;28;20026;-75
2021/01/01 09:46:13;;;;;;;30.10;17.23;;;3.20;99.90;;;;;;5011481;28;20022;-73
2021/01/01 09:48:39;;;;;;;31.88;18.90;;;3.20;99.90;;;;;;5011742;28;20231;-74
2021/01/01 09:51:04;;;;;;;36.03;19.83;;;3.20;99.90;;;;;;5011211;28;20022;-74
2021/01/01 09:53:30;;;;;;;29.75;17.52;;;3.30;99.90;;;;;;5012279;28;20068;-74
2021/01/01 09:55:55;;;;;;;32.03;19.15;;;3.30;99.90;;;;;;5011422;28;20026;-76
2021/01/01 09:58:21;;;;;;;31.55;18.13;;;3.30;99.90;;;;;;5011914;28;20046;-75
2021/01/01 10:00:47;;;;;;;30.30;18.05;;;3.40;99.90;;;;;;5010243;28;20628;-75
2021/01/01 10:03:12;;;;;;;29.50;17.40;;;3.40;99.90;;;;;;5011622;28;20408;-75
2021/01/01 10:05:38;;;;;;;31.88;18.63;;;3.50;99.90;;;;;;5001428;28;20378;-75
2021/01/01 10:08:03;;;;;;;30.27;17.25;;;3.60;99.90;;;;;;5003424;28;20033;-74
2021/01/01 10:10:32;;;;;;;32.58;18.33;;;3.60;99.90;;;;;;5009166;28;20030;-74
2021/01/01 10:13:01;;;;;;;28.75;17.90;;;3.60;99.90;;;;;;5009934;28;20241;-74
2021/01/01 10:15:26;;;;;;;32.85;19.25;;;3.70;99.90;;;;;;5008348;28;20112;-73
2021/01/01 10:17:52;;;;;;;31.83;18.17;;;3.80;99.90;;;;;;5001128;28;20038;-74
2021/01/01 10:20:17;;;;;;;31.63;18.20;;;3.70;99.90;;;;;;5003827;28;20038;-74
2021/01/01 10:22:43;;;;;;;31.02;18.55;;;3.80;99.90;;;;;;5001173;28;20061;-74
2021/01/01 10:25:09;;;;;;;25.73;16.92;;;3.90;99.90;;;;;;5004497;28;20022;-74
2021/01/01 10:27:34;;;;;;;27.52;16.98;;;3.90;99.90;;;;;;5006957;28;20049;-74
2021/01/01 10:30:00;;;;;;;25.88;15.77;;;3.90;99.90;;;;;;5000375;28;20348;-74
2021/01/01 10:32:25;;;;;;;28.13;16.25;;;4.00;99.90;;;;;;5008056;28;20022;-74
2021/01/01 10:34:51;;;;;;;26.60;16.60;;;4.20;99.90;;;;;;5010387;28;20030;-74
2021/01/01 10:37:17;;;;;;;25.55;16.67;;;4.20;99.90;;;;;;5008359;28;20105;-74
2021/01/01 10:39:42;;;;;;;31.45;17.05;;;4.30;99.90;;;;;;5001633;28;20717;-73
2021/01/01 10:42:28;;;;;;;27.52;16.08;;;4.30;99.90;;;;;;5000444;28;20036;-73
2021/01/01 10:44:53;;;;;;;29.33;16.25;;;4.40;99.90;;;;;;5003508;28;20120;-74
2021/01/01 10:47:19;;;;;;;26.98;16.45;;;4.60;99.90;;;;;;5006290;28;20172;-74
2021/01/01 10:49:45;;;;;;;26.10;15.55;;;4.70;99.90;;;;;;5006448;28;20022;-74
2021/01/01 10:52:10;;;;;;;28.90;17.23;;;4.80;99.90;;;;;;5010101;28;20018;-74
2021/01/01 10:54:36;;;;;;;27.50;16.35;;;4.80;99.90;;;;;;4998840;28;20027;-74
2021/01/01 10:57:02;;;;;;;28.88;16.65;;;4.80;99.90;;;;;;4993960;28;20121;-73
2021/01/01 10:59:27;;;;;;;28.90;16.23;;;4.70;99.90;;;;;;5003816;28;20022;-73
2021/01/01 11:01:54;;;;;;;25.52;16.13;;;4.70;99.90;;;;;;4994706;28;20514;-74
2021/01/01 11:04:20;;;;;;;24.38;15.73;;;4.70;99.90;;;;;;5000920;28;20383;-74
2021/01/01 11:06:45;;;;;;;24.35;15.05;;;4.60;99.90;;;;;;5006995;28;20033;-74
2021/01/01 11:09:11;;;;;;;28.63;16.55;;;4.60;99.90;;;;;;5005494;28;20025;-74
2021/01/01 11:11:36;;;;;;;27.90;16.58;;;4.70;99.90;;;;;;5006980;28;20033;-74
2021/01/01 11:14:10;;;;;;;22.98;15.30;;;4.80;99.90;;;;;;4988825;28;20521;-74
2021/01/01 12:20:57;;;;;;;15.07;9.30;;;6.00;99.90;;;;;;4993713;28;20514;-74
2021/01/01 12:23:43;;;;;;;15.45;10.23;;;6.10;99.90;;;;;;5017052;28;20054;-74
2021/01/01 12:26:09;;;;;;;20.13;11.32;;;6.10;99.90;;;;;;5003169;28;20049;-74
2021/01/01 12:28:35;;;;;;;16.38;9.55;;;6.00;99.90;;;;;;5003929;28;20099;-74
2021/01/01 12:31:04;;;;;;;17.60;9.85;;;6.00;99.90;;;;;;5004674;28;20357;-74
2021/01/01 12:33:31;;;;;;;17.08;9.90;;;6.00;99.90;;;;;;5005488;28;20243;-74
2021/01/01 12:35:56;;;;;;;15.20;10.15;;;5.90;99.90;;;;;;5002787;28;20026;-74
2021/01/01 12:38:22;;;;;;;17.73;9.02;;;5.90;99.90;;;;;;5005261;28;20057;-75
2021/01/01 12:40:47;;;;;;;18.05;8.82;;;5.70;99.90;;;;;;5001639;28;20221;-72
2021/01/01 12:43:13;;;;;;;13.35;8.75;;;5.60;99.90;;;;;;5001247;28;20291;-72
2021/01/01 12:45:38;;;;;;;18.15;8.18;;;5.60;99.90;;;;;;4994589;28;20065;-72
2021/01/01 12:48:05;;;;;;;14.55;8.43;;;5.60;99.90;;;;;;4994309;28;20323;-73
2021/01/01 12:50:31;;;;;;;14.98;8.38;;;5.40;99.90;;;;;;4999891;28;20110;-73
2021/01/01 12:52:58;;;;;;;12.38;7.55;;;5.40;99.90;;;;;;4995232;28;20145;-72
2021/01/01 12:55:26;;;;;;;14.05;7.90;;;5.40;99.90;;;;;;4994759;28;20228;-72
2021/01/01 12:57:52;;;;;;;14.05;8.18;;;5.50;99.90;;;;;;4993450;28;20490;-72
2021/01/01 13:00:18;;;;;;;17.77;8.00;;;5.30;99.90;;;;;;4997803;28;20034;-73
2021/01/01 13:02:44;;;;;;;12.82;7.35;;;5.30;99.90;;;;;;4993272;28;20033;-73
2021/01/01 13:05:11;;;;;;;11.18;7.18;;;5.40;99.90;;;;;;5002718;28;20027;-73
2021/01/01 13:07:37;;;;;;;14.07;7.55;;;5.40;99.90;;;;;;4989165;28;20033;-78
2021/01/01 13:10:06;;;;;;;13.68;6.28;;;5.40;99.90;;;;;;4999310;28;20041;-78
2021/01/01 13:12:33;;;;;;;10.00;5.72;;;5.40;99.90;;;;;;4996007;28;20044;-79
2021/01/01 13:14:59;;;;;;;11.43;6.10;;;5.40;99.90;;;;;;4997904;28;20084;-79
2021/01/01 13:17:26;;;;;;;9.43;6.00;;;5.40;99.90;;;;;;5000702;28;20034;-79
2021/01/01 13:19:52;;;;;;;15.93;5.90;;;5.40;99.90;;;;;;5002730;28;20026;-79
2021/01/01 13:22:38;;;;;;;9.30;5.45;;;5.40;99.90;;;;;;5002046;28;20110;-79
2021/01/01 13:25:04;;;;;;;9.35;5.32;;;5.30;99.90;;;;;;4943346;28;20035;-79
2021/01/01 13:27:30;;;;;;;9.60;5.63;;;5.30;99.90;;;;;;4943400;28;20046;-78
2021/01/01 13:29:55;;;;;;;12.52;6.40;;;5.40;99.90;;;;;;4975531;28;20140;-73
2021/01/01 13:32:22;;;;;;;8.63;5.15;;;5.40;99.90;;;;;;5002624;28;20030;-73
2021/01/01 13:34:48;;;;;;;8.43;5.13;;;5.40;99.90;;;;;;5000930;28;20303;-73
2021/01/01 13:37:14;;;;;;;9.93;5.00;;;5.40;99.90;;;;;;4999290;28;20577;-73
2021/01/01 13:39:40;;;;;;;8.40;4.95;;;5.40;99.90;;;;;;4996696;28;20034;-73
2021/01/01 13:42:06;;;;;;;12.32;5.43;;;5.40;99.90;;;;;;5006986;28;20195;-73
2021/01/01 13:44:32;;;;;;;9.52;5.50;;;5.40;99.90;;;;;;5007753;28;20026;-73
2021/01/01 13:46:58;;;;;;;9.80;5.45;;;5.40;99.90;;;;;;5007845;28;20243;-73